KPWK/PWK METAR and TAF weather

Enter ICAO airport designator
Station Type Date Time Source
KPWK METAR 2020/07/11 04:52 UTC NOAA

KPWK 110452Z AUTO 31006KT 10SM CLR 24/18 A2991 RMK AO2 SLP122 T02440178


Station Type Date Time Source
KPWK Decoded METAR 2020/07/11 04:52 UTC NOAA

CHICAGO EXECUTIVE AIRPORT, IL, United States (KPWK) 42-07N 087-54W 203M
Jul 11, 2020 - 12:52 AM EDT / 2020.07.11 0452 UTC
Wind: from the NW (310 degrees) at 7 MPH (6 KT):0
Visibility: 10 mile(s):0
Sky conditions: clear
Temperature: 75.9 F (24.4 C)
Dew Point: 64.0 F (17.8 C)
Relative Humidity: 66%
Pressure (altimeter): 29.91 in. Hg (1012 hPa)
ob: KPWK 110452Z AUTO 31006KT 10SM CLR 24/18 A2991 RMK AO2 SLP122 T02440178
cycle: 5

Station Type Date Time Source
KPWK TAF UTC NOAA

Error!

Example: see airport list